createdAt,value
2017-12-19T00:00:28.777Z,11.47
2017-12-19T00:02:55.056Z,11.30
2017-12-19T00:05:21.376Z,12.33
2017-12-19T00:07:47.753Z,12.10
2017-12-19T00:10:13.977Z,12.27
2017-12-19T00:12:40.301Z,11.33
2017-12-19T00:15:07.311Z,11.90
2017-12-19T00:17:33.591Z,14.03
2017-12-19T00:19:59.860Z,12.73
2017-12-19T00:22:38.303Z,12.27
2017-12-19T00:25:06.087Z,12.07
2017-12-19T00:27:32.385Z,12.00
2017-12-19T00:29:58.727Z,11.77
2017-12-19T00:32:25.028Z,11.87
2017-12-19T00:34:51.329Z,12.20
2017-12-19T00:37:17.640Z,10.67
2017-12-19T00:39:44.624Z,12.60
2017-12-19T00:42:10.910Z,11.97
2017-12-19T00:44:37.914Z,11.60
2017-12-19T00:47:04.150Z,10.97
2017-12-19T00:49:30.472Z,10.67
2017-12-19T00:51:56.742Z,11.57
2017-12-19T00:54:23.763Z,12.37
2017-12-19T00:56:50.054Z,12.50
2017-12-19T00:59:17.310Z,11.20
2017-12-19T01:01:43.612Z,12.17
2017-12-19T01:04:10.636Z,10.87
2017-12-19T01:06:38.153Z,11.17
2017-12-19T01:09:04.425Z,11.57
2017-12-19T01:11:30.715Z,11.93
2017-12-19T01:13:56.958Z,11.90
2017-12-19T01:16:23.277Z,12.50
2017-12-19T01:18:49.673Z,12.67
2017-12-19T01:21:16.790Z,12.67
2017-12-19T01:23:43.078Z,11.87
2017-12-19T01:26:09.382Z,12.83
2017-12-19T01:28:36.570Z,12.33
2017-12-19T01:31:02.895Z,11.30
2017-12-19T01:33:29.160Z,13.77
2017-12-19T01:35:55.473Z,13.10
2017-12-19T01:38:21.723Z,11.73
2017-12-19T01:40:48.025Z,11.77
2017-12-19T01:43:14.277Z,12.50
2017-12-19T01:45:40.545Z,13.30
2017-12-19T01:48:07.552Z,12.47
2017-12-19T01:50:33.870Z,11.00
2017-12-19T01:53:00.244Z,11.03
2017-12-19T01:55:27.248Z,13.07
2017-12-19T01:57:53.551Z,11.73
2017-12-19T02:00:19.794Z,12.37
2017-12-19T02:02:46.121Z,10.13
2017-12-19T02:05:12.492Z,11.33
2017-12-19T02:07:46.603Z,13.07
2017-12-19T02:10:12.878Z,10.40
2017-12-19T02:12:39.131Z,11.80
2017-12-19T02:15:05.445Z,11.50
2017-12-19T02:17:31.746Z,10.37
2017-12-19T02:19:58.036Z,11.07
2017-12-19T02:22:24.342Z,11.80
2017-12-19T02:24:50.593Z,11.40
2017-12-19T02:27:16.856Z,12.30
2017-12-19T02:29:44.644Z,10.13
2017-12-19T02:32:11.675Z,13.93
2017-12-19T02:34:37.968Z,11.87
2017-12-19T02:37:04.231Z,12.10
2017-12-19T02:39:30.541Z,11.37
2017-12-19T02:41:56.839Z,12.43
2017-12-19T02:44:23.207Z,12.40
2017-12-19T02:46:49.506Z,12.50
2017-12-19T02:49:15.858Z,12.43
2017-12-19T02:51:42.232Z,11.37
2017-12-19T02:54:10.236Z,13.37
2017-12-19T02:56:36.537Z,12.77
2017-12-19T02:59:03.561Z,13.93
2017-12-19T03:01:29.847Z,11.53
2017-12-19T03:03:56.096Z,11.70
2017-12-19T03:06:22.374Z,11.63
2017-12-19T03:08:49.376Z,11.47
2017-12-19T03:11:15.704Z,12.93
2017-12-19T03:13:42.030Z,12.50
2017-12-19T03:16:08.394Z,12.20
2017-12-19T03:18:34.672Z,11.23
2017-12-19T03:21:00.948Z,11.37
2017-12-19T03:23:27.269Z,11.40
2017-12-19T03:25:53.527Z,11.70
2017-12-19T03:28:20.494Z,11.87
2017-12-19T03:30:46.787Z,11.87
2017-12-19T03:33:13.104Z,11.07
2017-12-19T03:35:39.370Z,11.50
2017-12-19T03:38:07.429Z,11.90
2017-12-19T03:40:34.086Z,11.30
2017-12-19T03:43:01.089Z,12.40
2017-12-19T03:45:27.432Z,13.70
2017-12-19T03:47:53.691Z,13.23
2017-12-19T03:50:20.723Z,12.30
2017-12-19T03:52:47.742Z,10.87
2017-12-19T03:55:14.081Z,12.83
2017-12-19T03:57:40.360Z,11.77
2017-12-19T04:00:06.674Z,13.70
2017-12-19T04:02:33.698Z,13.10
2017-12-19T04:05:00.028Z,12.97
2017-12-19T04:07:26.378Z,11.67
2017-12-19T04:09:52.659Z,12.60
2017-12-19T04:12:19.104Z,12.97
2017-12-19T04:14:45.340Z,12.30
2017-12-19T04:17:11.620Z,12.53
2017-12-19T04:19:37.808Z,13.73
2017-12-19T04:22:04.078Z,14.23
2017-12-19T04:24:30.360Z,14.43
2017-12-19T04:26:56.621Z,14.53
2017-12-19T04:29:22.998Z,14.03
2017-12-19T04:31:49.268Z,15.33
2017-12-19T04:34:15.584Z,14.07
2017-12-19T04:36:41.876Z,13.70
2017-12-19T04:39:08.332Z,14.10
2017-12-19T04:41:34.633Z,13.40
2017-12-19T04:44:00.887Z,13.63
2017-12-19T04:46:27.261Z,12.20
2017-12-19T04:48:53.497Z,14.00
2017-12-19T04:51:19.819Z,13.57
2017-12-19T04:53:46.135Z,14.17
2017-12-19T04:56:12.404Z,13.27
2017-12-19T04:58:39.463Z,14.47
2017-12-19T05:01:05.766Z,15.67
2017-12-19T05:03:32.061Z,14.33
2017-12-19T05:05:58.358Z,15.13
2017-12-19T05:08:24.655Z,15.57
2017-12-19T05:10:50.892Z,14.77
2017-12-19T05:13:17.950Z,15.27
2017-12-19T05:15:44.987Z,16.17
2017-12-19T05:18:12.041Z,15.30
2017-12-19T05:20:38.372Z,17.67
2017-12-19T05:23:05.452Z,16.77
2017-12-19T05:25:31.730Z,17.00
2017-12-19T05:27:58.014Z,15.17
2017-12-19T05:30:24.314Z,15.23
2017-12-19T05:32:51.307Z,13.80
2017-12-19T05:35:17.754Z,13.40
2017-12-19T05:37:44.275Z,11.60
2017-12-19T05:40:10.565Z,12.53
2017-12-19T05:42:37.707Z,14.27
2017-12-19T05:45:04.942Z,16.07
2017-12-19T05:47:31.399Z,16.70
2017-12-19T05:49:58.475Z,17.87
2017-12-19T05:52:24.797Z,19.17
2017-12-19T05:54:51.161Z,17.90
2017-12-19T05:57:17.427Z,19.63
2017-12-19T05:59:44.496Z,19.90
2017-12-19T06:02:10.843Z,18.90
2017-12-19T06:04:37.104Z,18.50
2017-12-19T06:07:03.373Z,19.50
2017-12-19T06:09:30.458Z,18.40
2017-12-19T06:11:56.836Z,17.77
2017-12-19T06:14:23.958Z,19.60
2017-12-19T06:16:50.285Z,20.13
2017-12-19T06:19:16.574Z,19.80
2017-12-19T06:21:42.896Z,17.90
2017-12-19T06:24:09.912Z,21.57
2017-12-19T06:26:36.173Z,19.50
2017-12-19T06:29:03.349Z,18.37
2017-12-19T06:31:29.617Z,19.83
2017-12-19T06:33:55.861Z,19.97
2017-12-19T06:36:22.119Z,20.60
2017-12-19T06:38:49.167Z,19.77
2017-12-19T06:41:15.500Z,18.80
2017-12-19T06:43:42.529Z,18.73
2017-12-19T06:46:08.838Z,18.50
2017-12-19T06:48:35.098Z,18.33
2017-12-19T06:51:02.295Z,18.20
2017-12-19T06:53:28.596Z,18.10
2017-12-19T06:55:54.889Z,18.43
2017-12-19T06:58:21.155Z,19.00
2017-12-19T07:00:47.461Z,18.60
2017-12-19T07:03:14.508Z,18.40
2017-12-19T07:05:40.796Z,17.93
2017-12-19T07:08:07.052Z,21.00
2017-12-19T07:10:33.320Z,20.43
2017-12-19T07:13:00.395Z,19.10
2017-12-19T07:15:27.069Z,20.23
2017-12-19T07:17:53.372Z,18.47
2017-12-19T07:20:20.011Z,20.60
2017-12-19T07:22:46.434Z,21.77
2017-12-19T07:25:12.642Z,19.47
2017-12-19T07:27:39.085Z,21.83
2017-12-19T07:30:05.389Z,23.40
2017-12-19T07:32:32.417Z,23.90
2017-12-19T07:34:58.779Z,23.07
2017-12-19T07:37:25.897Z,24.30
2017-12-19T07:39:52.240Z,20.90
2017-12-19T07:42:18.642Z,20.60
2017-12-19T07:44:44.940Z,20.90
2017-12-19T07:47:11.239Z,20.37
2017-12-19T07:49:38.240Z,20.90
2017-12-19T07:52:04.558Z,20.00
2017-12-19T07:54:30.862Z,20.60
2017-12-19T07:56:57.922Z,22.33
2017-12-19T07:59:24.196Z,20.80
2017-12-19T08:01:50.493Z,21.80
2017-12-19T08:04:16.809Z,22.87
2017-12-19T08:06:43.143Z,22.27
2017-12-19T08:09:09.440Z,21.57
2017-12-19T08:11:35.784Z,22.27
2017-12-19T08:14:02.800Z,22.33
2017-12-19T08:16:29.147Z,22.53
2017-12-19T08:18:55.373Z,25.43
2017-12-19T08:21:21.672Z,24.13
2017-12-19T08:23:47.958Z,26.37
2017-12-19T08:26:14.987Z,25.57
2017-12-19T08:28:41.317Z,25.70
2017-12-19T08:31:07.608Z,28.90
2017-12-19T08:33:34.020Z,26.80
2017-12-19T08:36:00.277Z,27.73
2017-12-19T08:38:26.550Z,21.00
2017-12-19T08:40:52.853Z,23.73
2017-12-19T08:43:19.145Z,17.00
2017-12-19T08:45:45.393Z,16.30
2017-12-19T08:48:11.719Z,16.10
2017-12-19T08:50:37.959Z,15.13
2017-12-19T08:53:04.462Z,15.20
2017-12-19T08:55:30.771Z,16.40
2017-12-19T08:57:57.841Z,15.43
2017-12-19T09:00:24.108Z,15.03
2017-12-19T09:02:50.481Z,14.10
2017-12-19T09:05:17.727Z,14.27
2017-12-19T09:07:43.988Z,15.20
2017-12-19T09:10:10.368Z,14.30
2017-12-19T09:12:36.670Z,14.30
2017-12-19T09:15:02.986Z,14.03
2017-12-19T09:17:29.224Z,14.70
2017-12-19T09:19:55.514Z,15.53
2017-12-19T09:22:22.531Z,14.77
2017-12-19T09:24:48.760Z,15.73
2017-12-19T09:27:15.048Z,14.60
2017-12-19T09:29:41.324Z,17.37
2017-12-19T09:32:07.549Z,16.00
2017-12-19T09:34:33.829Z,14.00
2017-12-19T09:37:00.813Z,15.17
2017-12-19T09:39:34.005Z,14.73
2017-12-19T09:42:00.255Z,15.90
2017-12-19T09:44:26.574Z,14.70
2017-12-19T09:46:52.866Z,14.73
2017-12-19T09:49:19.122Z,15.03
2017-12-19T09:51:45.388Z,14.37
2017-12-19T09:54:11.656Z,14.73
2017-12-19T09:56:37.910Z,15.17
2017-12-19T09:59:04.176Z,14.53
2017-12-19T10:01:30.492Z,14.67
2017-12-19T10:03:56.756Z,16.00
2017-12-19T10:06:23.732Z,14.73
2017-12-19T10:08:50.034Z,15.43
2017-12-19T10:11:17.053Z,15.37
2017-12-19T10:13:43.329Z,16.10
2017-12-19T10:16:09.617Z,15.90
2017-12-19T10:18:35.867Z,14.87
2017-12-19T10:21:02.915Z,17.67
2017-12-19T10:23:29.924Z,16.30
2017-12-19T10:25:56.217Z,16.70
2017-12-19T10:28:22.496Z,16.80
2017-12-19T10:30:48.789Z,15.00
2017-12-19T10:33:15.119Z,15.83
2017-12-19T10:35:41.363Z,15.27
2017-12-19T10:38:07.653Z,14.13
2017-12-19T10:40:34.702Z,14.97
2017-12-19T10:43:01.729Z,16.57
2017-12-19T10:45:28.056Z,17.20
2017-12-19T10:47:54.380Z,16.73
2017-12-19T10:50:20.756Z,15.50
2017-12-19T10:52:47.075Z,14.90
2017-12-19T10:55:14.074Z,13.77
2017-12-19T10:57:40.332Z,16.20
2017-12-19T11:00:06.584Z,15.47
2017-12-19T11:02:33.634Z,14.87
2017-12-19T11:04:59.870Z,15.53
2017-12-19T11:07:26.148Z,15.60
2017-12-19T11:09:52.422Z,17.40
2017-12-19T11:12:18.745Z,17.53
2017-12-19T11:14:45.761Z,15.20
2017-12-19T11:17:12.125Z,16.60
2017-12-19T11:19:38.383Z,16.87
2017-12-19T11:22:04.608Z,17.00
2017-12-19T11:24:30.917Z,16.80
2017-12-19T11:26:57.995Z,16.07
2017-12-19T11:29:24.335Z,16.97
2017-12-19T11:31:50.609Z,17.90
2017-12-19T11:34:16.945Z,16.13
2017-12-19T11:36:43.990Z,18.53
2017-12-19T11:39:11.088Z,17.37
2017-12-19T11:41:37.456Z,17.23
2017-12-19T11:44:03.737Z,15.53
2017-12-19T11:46:29.982Z,18.63
2017-12-19T11:48:56.290Z,17.70
2017-12-19T11:51:22.596Z,17.97
2017-12-19T11:53:49.634Z,17.90
2017-12-19T11:56:16.636Z,17.27
2017-12-19T11:58:42.989Z,18.23
2017-12-19T12:01:09.316Z,19.17
2017-12-19T12:03:35.600Z,19.03
2017-12-19T12:06:02.618Z,18.10
2017-12-19T12:08:28.852Z,18.97
2017-12-19T12:10:55.144Z,19.57
2017-12-19T12:13:21.407Z,18.67
2017-12-19T12:15:47.856Z,20.20
2017-12-19T12:18:15.082Z,19.00
2017-12-19T12:20:41.313Z,21.47
2017-12-19T12:23:07.577Z,19.40
2017-12-19T12:25:34.629Z,19.50
2017-12-19T12:28:00.917Z,20.07
2017-12-19T12:30:27.161Z,19.10
2017-12-19T12:32:53.461Z,18.63
2017-12-19T12:35:19.755Z,19.33
2017-12-19T12:37:46.061Z,19.20
2017-12-19T12:40:13.052Z,18.20
2017-12-19T12:42:39.329Z,19.50
2017-12-19T12:45:05.660Z,18.33
2017-12-19T12:47:31.944Z,19.63
2017-12-19T12:49:58.201Z,19.53
2017-12-19T12:52:24.474Z,21.63
2017-12-19T12:54:51.514Z,20.37
2017-12-19T12:57:19.205Z,18.43
2017-12-19T12:59:45.486Z,18.60
2017-12-19T13:02:11.814Z,18.73
2017-12-19T13:04:38.109Z,18.37
2017-12-19T13:07:04.394Z,19.70
2017-12-19T13:09:31.446Z,16.87
2017-12-19T13:11:58.481Z,18.10
2017-12-19T13:14:25.530Z,15.77
2017-12-19T13:16:51.849Z,17.00
2017-12-19T13:19:18.193Z,17.17
2017-12-19T13:21:45.237Z,16.17
2017-12-19T13:24:12.889Z,16.40
2017-12-19T13:26:39.185Z,19.33
2017-12-19T13:29:05.466Z,16.07
2017-12-19T13:31:32.568Z,17.20
2017-12-19T13:33:58.828Z,18.47
2017-12-19T13:36:25.156Z,17.40
2017-12-19T13:38:51.458Z,17.13
2017-12-19T13:41:17.765Z,18.20
2017-12-19T13:43:44.049Z,17.23
2017-12-19T13:46:10.276Z,16.23
2017-12-19T13:48:36.532Z,17.40
2017-12-19T13:51:03.556Z,18.30
2017-12-19T13:53:29.812Z,18.33
2017-12-19T13:55:56.820Z,20.37
2017-12-19T13:58:24.037Z,16.87
2017-12-19T14:00:50.329Z,18.83
2017-12-19T14:03:16.651Z,18.33
2017-12-19T14:05:43.961Z,18.30
2017-12-19T14:08:10.237Z,17.40
2017-12-19T14:10:36.573Z,19.83
2017-12-19T14:13:02.907Z,17.83
2017-12-19T14:15:29.189Z,17.20
2017-12-19T14:17:55.539Z,19.80
2017-12-19T14:20:21.874Z,17.80
2017-12-19T14:22:48.147Z,18.80
2017-12-19T14:25:14.404Z,18.57
2017-12-19T14:27:40.678Z,18.20
2017-12-19T14:30:06.952Z,17.43
2017-12-19T14:32:33.238Z,16.90
2017-12-19T14:34:59.551Z,17.53
2017-12-19T14:37:25.882Z,19.17
2017-12-19T14:39:52.132Z,17.50
2017-12-19T14:42:18.452Z,17.30
2017-12-19T14:44:45.232Z,17.90
2017-12-19T14:47:11.510Z,18.53
2017-12-19T14:49:37.778Z,19.83
2017-12-19T14:52:04.075Z,22.33
2017-12-19T14:54:30.410Z,19.13
2017-12-19T14:56:56.675Z,19.43
2017-12-19T14:59:23.788Z,21.27
2017-12-19T15:01:50.128Z,20.67
2017-12-19T15:04:16.457Z,20.57
2017-12-19T15:06:42.739Z,20.83
2017-12-19T15:09:09.011Z,16.57
2017-12-19T15:11:35.285Z,19.33
2017-12-19T15:14:02.311Z,19.50
2017-12-19T15:16:28.617Z,20.77
2017-12-19T15:18:54.853Z,20.53
2017-12-19T15:21:21.177Z,19.03
2017-12-19T15:23:48.257Z,20.77
2017-12-19T15:26:15.277Z,19.30
2017-12-19T15:28:41.599Z,17.47
2017-12-19T15:31:07.881Z,21.73
2017-12-19T15:33:34.160Z,19.03
2017-12-19T15:36:00.463Z,18.37
2017-12-19T15:38:26.788Z,19.70
2017-12-19T15:40:53.039Z,18.80
2017-12-19T15:43:19.319Z,18.40
2017-12-19T15:45:46.418Z,20.17
2017-12-19T15:48:14.502Z,18.40
2017-12-19T15:50:40.803Z,19.53
2017-12-19T15:53:07.119Z,18.37
2017-12-19T15:55:33.377Z,18.03
2017-12-19T15:57:59.672Z,19.07
2017-12-19T16:00:26.652Z,20.27
2017-12-19T16:02:52.969Z,16.87
2017-12-19T16:05:19.261Z,17.37
2017-12-19T16:07:45.541Z,15.67
2017-12-19T16:10:11.853Z,16.13
2017-12-19T16:12:38.123Z,16.97
2017-12-19T16:15:04.549Z,17.20
2017-12-19T16:17:30.901Z,16.77
2017-12-19T16:19:57.563Z,15.80
2017-12-19T16:22:24.244Z,16.80
2017-12-19T16:24:50.534Z,18.30
2017-12-19T16:27:17.907Z,15.30
2017-12-19T16:29:44.901Z,16.53
2017-12-19T16:32:11.408Z,17.50
2017-12-19T16:34:37.738Z,15.63
2017-12-19T16:37:04.046Z,15.70
2017-12-19T16:39:30.335Z,16.40
2017-12-19T16:41:56.946Z,16.77
2017-12-19T16:44:23.263Z,14.10
2017-12-19T16:46:49.654Z,15.43
2017-12-19T16:49:17.056Z,12.87
2017-12-19T16:51:44.077Z,13.03
2017-12-19T16:54:10.850Z,13.80
2017-12-19T16:56:37.291Z,14.00
2017-12-19T16:59:03.914Z,15.00
2017-12-19T17:01:30.165Z,13.33
2017-12-19T17:03:56.737Z,15.30
2017-12-19T17:06:23.319Z,14.30
2017-12-19T17:08:49.891Z,14.20
2017-12-19T17:11:16.242Z,13.10
2017-12-19T17:13:42.643Z,12.67
2017-12-19T17:16:09.707Z,11.33
2017-12-19T17:18:36.006Z,10.50
2017-12-19T17:21:02.353Z,10.37
2017-12-19T17:23:28.636Z,10.43
2017-12-19T17:25:55.700Z,12.17
2017-12-19T17:28:22.015Z,9.10
2017-12-19T17:30:48.368Z,11.70
2017-12-19T17:33:14.759Z,10.77
2017-12-19T17:35:41.163Z,10.23
2017-12-19T17:38:07.426Z,11.00
2017-12-19T17:40:33.800Z,9.93
2017-12-19T17:43:00.073Z,10.23
2017-12-19T17:45:26.371Z,9.43
2017-12-19T17:47:52.646Z,8.57
2017-12-19T17:50:18.922Z,8.20
2017-12-19T17:52:45.316Z,7.90
2017-12-19T17:55:12.399Z,8.83
2017-12-19T17:57:38.767Z,8.97
2017-12-19T18:00:05.356Z,7.77
2017-12-19T18:02:31.692Z,7.00
2017-12-19T18:04:57.997Z,6.57
2017-12-19T18:07:25.075Z,6.20
2017-12-19T18:09:51.367Z,8.20
2017-12-19T18:12:17.613Z,7.40
2017-12-19T18:14:44.633Z,7.47
2017-12-19T18:17:11.010Z,7.67
2017-12-19T18:19:37.382Z,9.60
2017-12-19T18:22:03.701Z,5.70
2017-12-19T18:24:30.176Z,5.47
2017-12-19T18:26:56.520Z,6.07
2017-12-19T18:29:23.691Z,5.90
2017-12-19T18:31:50.220Z,6.90
2017-12-19T18:34:16.709Z,6.63
2017-12-19T18:36:43.076Z,7.20
2017-12-19T18:39:10.141Z,7.57
2017-12-19T18:41:36.784Z,7.67
2017-12-19T18:44:03.155Z,7.77
2017-12-19T18:46:29.444Z,6.60
2017-12-19T18:48:56.114Z,7.23
2017-12-19T18:51:22.458Z,8.00
2017-12-19T18:53:48.763Z,7.40
2017-12-19T18:56:15.365Z,7.87
2017-12-19T18:58:42.417Z,8.33
2017-12-19T19:01:09.461Z,6.53
2017-12-19T19:03:36.688Z,7.53
2017-12-19T19:06:03.001Z,7.30
2017-12-19T19:08:29.366Z,6.73
2017-12-19T19:10:56.537Z,6.73
2017-12-19T19:13:23.574Z,7.80
2017-12-19T19:15:50.692Z,7.93
2017-12-19T19:18:16.989Z,8.20
2017-12-19T19:20:43.412Z,8.17
2017-12-19T19:23:09.764Z,9.03
2017-12-19T19:25:36.050Z,7.90
2017-12-19T19:28:03.110Z,10.03
2017-12-19T19:30:29.486Z,8.87
2017-12-19T19:32:55.859Z,9.77
2017-12-19T19:35:24.155Z,8.77
2017-12-19T19:37:51.239Z,10.73
2017-12-19T19:40:17.611Z,9.63
2017-12-19T19:42:44.728Z,10.60
2017-12-19T19:45:11.211Z,10.83
2017-12-19T19:47:38.490Z,13.50
2017-12-19T19:50:04.851Z,17.87
2017-12-19T19:52:31.228Z,9.23
2017-12-19T19:54:58.465Z,9.93
2017-12-19T19:57:25.524Z,10.83
2017-12-19T19:59:52.622Z,10.27
2017-12-19T20:02:18.919Z,10.10
2017-12-19T20:04:45.287Z,8.83
2017-12-19T20:07:11.678Z,11.07
2017-12-19T20:09:38.078Z,9.30
2017-12-19T20:12:04.392Z,10.20
2017-12-19T20:14:30.749Z,10.40
2017-12-19T20:16:57.120Z,11.20
2017-12-19T20:19:23.528Z,12.20
2017-12-19T20:21:50.722Z,13.00
2017-12-19T20:24:17.174Z,10.50
2017-12-19T20:26:43.523Z,11.10
2017-12-19T20:29:09.956Z,11.93
2017-12-19T20:31:36.363Z,11.50
2017-12-19T20:34:02.758Z,12.40
2017-12-19T20:36:29.854Z,12.33
2017-12-19T20:38:56.254Z,11.67
2017-12-19T20:41:22.697Z,10.30
2017-12-19T20:43:49.153Z,11.40
2017-12-19T20:46:15.709Z,11.07
2017-12-19T20:48:42.088Z,13.50
2017-12-19T20:51:08.509Z,10.70
2017-12-19T20:53:34.939Z,12.50
2017-12-19T20:56:01.273Z,12.00
2017-12-19T20:58:28.367Z,9.97
2017-12-19T21:00:54.662Z,11.00
2017-12-19T21:03:21.020Z,9.00
2017-12-19T21:05:47.385Z,16.37
2017-12-19T21:08:13.642Z,10.30
2017-12-19T21:10:40.735Z,10.87
2017-12-19T21:13:06.994Z,10.00
2017-12-19T21:15:34.438Z,12.30
2017-12-19T21:18:00.789Z,11.43
2017-12-19T21:20:27.078Z,12.00
2017-12-19T21:22:53.384Z,12.73
2017-12-19T21:25:19.737Z,12.30
2017-12-19T21:27:46.104Z,12.70
2017-12-19T21:30:12.500Z,11.90
2017-12-19T21:32:38.830Z,11.97
2017-12-19T21:35:05.269Z,12.37
2017-12-19T21:37:31.637Z,11.70
2017-12-19T21:39:57.976Z,11.43
2017-12-19T21:42:25.077Z,13.40
2017-12-19T21:44:51.398Z,14.23
2017-12-19T21:47:17.685Z,15.40
2017-12-19T21:49:43.998Z,13.73
2017-12-19T21:52:10.268Z,16.57
2017-12-19T21:54:38.285Z,15.20
2017-12-19T21:57:04.548Z,14.20
2017-12-19T21:59:30.893Z,16.57
2017-12-19T22:01:58.827Z,15.43
2017-12-19T22:04:25.335Z,16.90
2017-12-19T22:06:51.694Z,16.23
2017-12-19T22:09:17.964Z,14.93
2017-12-19T22:11:45.070Z,14.20
2017-12-19T22:14:11.348Z,13.83
2017-12-19T22:16:38.380Z,15.70
2017-12-19T22:19:05.405Z,14.43
2017-12-19T22:21:31.737Z,15.37
2017-12-19T22:23:58.031Z,14.00
2017-12-19T22:26:24.356Z,16.17
2017-12-19T22:28:56.158Z,13.67
2017-12-19T22:31:16.927Z,14.47
2017-12-19T22:33:44.121Z,13.60
2017-12-19T22:36:11.205Z,13.47
2017-12-19T22:38:37.521Z,13.90
2017-12-19T22:41:04.595Z,14.07
2017-12-19T22:43:30.934Z,13.30
2017-12-19T22:45:58.012Z,13.93
2017-12-19T22:48:24.342Z,14.30
2017-12-19T22:50:51.344Z,14.80
2017-12-19T22:53:18.131Z,19.00
2017-12-19T22:55:44.523Z,16.90
2017-12-19T22:58:10.826Z,15.60
2017-12-19T23:00:37.874Z,17.67
2017-12-19T23:03:04.922Z,16.03
2017-12-19T23:05:32.032Z,14.70
2017-12-19T23:07:58.540Z,15.00
2017-12-19T23:10:25.087Z,15.23
2017-12-19T23:12:51.432Z,14.93
2017-12-19T23:15:17.701Z,14.33
2017-12-19T23:17:43.997Z,14.57
2017-12-19T23:20:10.414Z,17.47
2017-12-19T23:22:36.688Z,15.77
2017-12-19T23:25:03.804Z,14.50
2017-12-19T23:27:30.102Z,14.53
2017-12-19T23:29:56.362Z,14.17
2017-12-19T23:32:22.606Z,15.07
2017-12-19T23:34:48.936Z,15.60
2017-12-19T23:37:15.170Z,15.53
2017-12-19T23:39:48.432Z,14.90
2017-12-19T23:42:14.691Z,14.50
2017-12-19T23:44:40.944Z,14.50
2017-12-19T23:47:07.256Z,14.60
2017-12-19T23:49:33.771Z,15.93
2017-12-19T23:52:00.053Z,15.70
2017-12-19T23:54:28.113Z,14.73
2017-12-19T23:56:54.339Z,13.10
2017-12-19T23:59:20.649Z,14.07
